createdAt,value
2018-01-27T00:00:08.584Z,22.60
2018-01-27T00:02:36.102Z,24.70
2018-01-27T00:05:04.404Z,23.50
2018-01-27T00:07:31.958Z,23.33
2018-01-27T00:10:00.275Z,23.17
2018-01-27T00:12:28.585Z,23.00
2018-01-27T00:14:56.173Z,22.33
2018-01-27T00:17:23.705Z,23.50
2018-01-27T00:19:51.236Z,22.80
2018-01-27T00:22:18.836Z,22.83
2018-01-27T00:24:46.371Z,21.10
2018-01-27T00:27:14.658Z,22.53
2018-01-27T00:29:42.226Z,21.33
2018-01-27T00:32:09.751Z,22.97
2018-01-27T00:34:37.284Z,20.20
2018-01-27T00:37:05.627Z,21.63
2018-01-27T00:39:33.150Z,22.30
2018-01-27T00:42:00.692Z,21.17
2018-01-27T00:44:28.254Z,21.53
2018-01-27T00:46:55.774Z,21.53
2018-01-27T00:49:24.066Z,20.90
2018-01-27T00:51:51.617Z,19.90
2018-01-27T00:54:19.918Z,22.17
2018-01-27T00:56:47.439Z,20.60
2018-01-27T00:59:15.772Z,20.93
2018-01-27T01:01:44.080Z,20.80
2018-01-27T01:04:11.672Z,21.80
2018-01-27T01:06:39.955Z,21.47
2018-01-27T01:09:08.258Z,22.50
2018-01-27T01:11:36.549Z,21.90
2018-01-27T01:14:04.895Z,21.37
2018-01-27T01:16:32.511Z,21.87
2018-01-27T01:19:00.024Z,20.60
2018-01-27T01:21:28.329Z,20.97
2018-01-27T01:23:55.900Z,21.90
2018-01-27T01:26:24.189Z,21.40
2018-01-27T01:28:52.548Z,21.00
2018-01-27T01:31:20.848Z,20.33
2018-01-27T01:33:48.360Z,22.07
2018-01-27T01:36:15.950Z,20.50
2018-01-27T01:38:43.502Z,20.57
2018-01-27T01:41:11.031Z,22.57
2018-01-27T01:43:44.165Z,20.80
2018-01-27T01:46:12.447Z,21.57
2018-01-27T01:48:39.992Z,20.50
2018-01-27T01:51:08.319Z,21.13
2018-01-27T01:53:35.851Z,20.40
2018-01-27T01:56:03.367Z,19.67
2018-01-27T01:58:30.921Z,21.60
2018-01-27T02:00:58.489Z,20.83
2018-01-27T02:03:26.808Z,22.17
2018-01-27T02:05:54.362Z,22.57
2018-01-27T02:08:21.903Z,21.10
2018-01-27T02:10:49.422Z,21.10
2018-01-27T02:13:17.831Z,21.30
2018-01-27T02:15:45.361Z,21.13
2018-01-27T02:18:12.888Z,21.83
2018-01-27T02:20:40.449Z,22.27
2018-01-27T02:23:07.992Z,19.90
2018-01-27T02:25:36.278Z,21.57
2018-01-27T02:28:04.589Z,21.97
2018-01-27T02:30:32.884Z,20.47
2018-01-27T02:33:01.161Z,19.33
2018-01-27T02:35:28.712Z,22.17
2018-01-27T02:37:56.230Z,19.63
2018-01-27T02:40:23.756Z,20.90
2018-01-27T02:42:51.312Z,20.47
2018-01-27T02:45:19.609Z,18.90
2018-01-27T02:47:47.905Z,18.57
2018-01-27T02:50:15.452Z,18.87
2018-01-27T02:52:42.975Z,18.60
2018-01-27T02:55:10.529Z,19.03
2018-01-27T02:57:38.069Z,19.73
2018-01-27T03:00:06.423Z,19.30
2018-01-27T03:02:33.974Z,18.30
2018-01-27T03:05:01.529Z,19.13
2018-01-27T03:07:29.815Z,19.90
2018-01-27T03:09:57.347Z,18.97
2018-01-27T03:12:24.906Z,19.57
2018-01-27T03:14:53.207Z,19.27
2018-01-27T03:17:21.512Z,19.40
2018-01-27T03:19:49.817Z,20.50
2018-01-27T03:22:17.404Z,27.47
2018-01-27T03:24:45.681Z,28.83
2018-01-27T03:27:13.245Z,31.17
2018-01-27T03:29:40.814Z,30.20
2018-01-27T03:32:08.347Z,30.70
2018-01-27T03:34:36.664Z,33.20
2018-01-27T03:37:04.951Z,30.20
2018-01-27T03:39:33.267Z,31.97
2018-01-27T03:42:01.576Z,34.83
2018-01-27T03:44:29.110Z,35.27
2018-01-27T03:46:56.650Z,35.30
2018-01-27T03:49:24.214Z,34.20
2018-01-27T03:51:52.507Z,35.30
2018-01-27T03:54:20.808Z,37.07
2018-01-27T03:56:49.089Z,34.63
2018-01-27T03:59:16.630Z,33.77
2018-01-27T04:01:44.226Z,35.43
2018-01-27T04:04:11.764Z,37.77
2018-01-27T04:06:40.070Z,32.00
2018-01-27T04:09:08.376Z,34.23
2018-01-27T04:11:36.683Z,36.00
2018-01-27T04:14:04.981Z,35.30
2018-01-27T04:16:33.279Z,29.63
2018-01-27T04:19:01.605Z,28.40
2018-01-27T04:21:29.129Z,30.37
2018-01-27T04:23:57.461Z,26.50
2018-01-27T04:26:25.768Z,26.70
2018-01-27T04:28:54.080Z,27.43
2018-01-27T04:31:22.409Z,25.90
2018-01-27T04:33:49.935Z,23.40
2018-01-27T04:36:18.326Z,21.97
2018-01-27T04:38:46.628Z,22.43
2018-01-27T04:41:14.180Z,21.93
2018-01-27T04:43:41.735Z,21.47
2018-01-27T04:46:10.036Z,24.00
2018-01-27T04:48:38.471Z,22.20
2018-01-27T04:51:06.033Z,23.37
2018-01-27T04:53:34.322Z,23.47
2018-01-27T04:56:02.629Z,23.60
2018-01-27T04:58:30.944Z,22.17
2018-01-27T05:00:59.270Z,23.13
2018-01-27T05:03:26.809Z,26.20
2018-01-27T05:05:55.125Z,23.10
2018-01-27T05:08:23.426Z,25.20
2018-01-27T05:10:52.493Z,26.00
2018-01-27T05:13:20.032Z,26.50
2018-01-27T05:15:47.585Z,26.50
2018-01-27T05:18:15.147Z,28.33
2018-01-27T05:20:42.661Z,27.10
2018-01-27T05:23:11.734Z,26.20
2018-01-27T05:25:39.276Z,26.37
2018-01-27T05:28:06.840Z,24.60
2018-01-27T05:30:34.390Z,25.47
2018-01-27T05:33:02.698Z,24.73
2018-01-27T05:35:30.416Z,23.70
2018-01-27T05:37:58.704Z,24.53
2018-01-27T05:40:27.012Z,23.37
2018-01-27T05:42:55.351Z,22.07
2018-01-27T05:45:22.869Z,20.87
2018-01-27T05:47:50.437Z,20.77
2018-01-27T05:50:18.078Z,20.80
2018-01-27T05:52:46.428Z,19.70
2018-01-27T05:55:13.985Z,19.23
2018-01-27T05:57:42.291Z,18.27
2018-01-27T06:00:10.607Z,18.70
2018-01-27T06:02:38.142Z,18.83
2018-01-27T06:05:06.436Z,18.37
2018-01-27T06:07:34.092Z,19.57
2018-01-27T06:10:02.388Z,18.10
2018-01-27T06:12:30.706Z,19.20
2018-01-27T06:14:59.127Z,19.23
2018-01-27T06:17:27.444Z,20.40
2018-01-27T06:19:55.750Z,22.17
2018-01-27T06:22:23.316Z,20.30
2018-01-27T06:24:52.548Z,21.70
2018-01-27T06:27:20.135Z,23.63
2018-01-27T06:29:47.659Z,20.63
2018-01-27T06:32:15.268Z,22.37
2018-01-27T06:34:43.657Z,21.07
2018-01-27T06:37:11.199Z,20.87
2018-01-27T06:39:39.605Z,21.03
2018-01-27T06:42:07.180Z,24.30
2018-01-27T06:44:35.498Z,26.97
2018-01-27T06:47:03.152Z,31.90
2018-01-27T06:49:30.723Z,29.53
2018-01-27T06:51:58.247Z,30.23
2018-01-27T06:54:25.806Z,29.70
2018-01-27T06:56:53.363Z,29.43
2018-01-27T06:59:21.459Z,27.60
2018-01-27T07:01:49.733Z,30.30
2018-01-27T07:04:18.201Z,30.03
2018-01-27T07:06:45.757Z,27.57
2018-01-27T07:09:13.315Z,28.30
2018-01-27T07:11:41.598Z,27.83
2018-01-27T07:14:09.157Z,27.60
2018-01-27T07:16:36.831Z,24.10
2018-01-27T07:19:04.406Z,26.67
2018-01-27T07:21:31.930Z,30.47
2018-01-27T07:24:00.285Z,32.20
2018-01-27T07:26:28.586Z,32.67
2018-01-27T07:28:56.922Z,33.97
2018-01-27T07:31:24.451Z,36.10
2018-01-27T07:33:52.741Z,37.40
2018-01-27T07:36:21.107Z,35.47
2018-01-27T07:38:48.642Z,34.27
2018-01-27T07:41:17.181Z,34.50
2018-01-27T07:43:44.723Z,35.77
2018-01-27T07:46:13.044Z,37.23
2018-01-27T07:48:40.647Z,35.90
2018-01-27T07:51:08.314Z,36.97
2018-01-27T07:53:36.593Z,37.87
2018-01-27T07:56:04.898Z,36.63
2018-01-27T07:58:33.203Z,35.70
2018-01-27T08:01:01.562Z,37.67
2018-01-27T08:03:29.131Z,41.10
2018-01-27T08:05:57.557Z,41.83
2018-01-27T08:08:25.078Z,40.43
2018-01-27T08:10:52.626Z,41.57
2018-01-27T08:13:20.264Z,42.90
2018-01-27T08:15:47.798Z,43.40
2018-01-27T08:18:15.358Z,40.50
2018-01-27T08:20:42.903Z,38.83
2018-01-27T08:23:11.186Z,41.87
2018-01-27T08:25:38.785Z,38.83
2018-01-27T08:28:07.116Z,40.10
2018-01-27T08:30:34.652Z,38.73
2018-01-27T08:33:02.228Z,39.70
2018-01-27T08:35:29.797Z,39.90
2018-01-27T08:37:57.331Z,40.60
2018-01-27T08:40:24.889Z,39.20
2018-01-27T08:42:52.433Z,37.60
2018-01-27T08:45:20.093Z,37.83
2018-01-27T08:47:47.635Z,39.03
2018-01-27T08:50:15.237Z,36.63
2018-01-27T08:52:42.800Z,39.10
2018-01-27T08:55:10.356Z,37.60
2018-01-27T08:57:38.647Z,37.53
2018-01-27T09:00:07.001Z,37.10
2018-01-27T09:02:34.623Z,36.43
2018-01-27T09:05:02.139Z,38.80
2018-01-27T09:07:30.450Z,39.67
2018-01-27T09:09:57.989Z,40.20
2018-01-27T09:12:25.518Z,39.30
2018-01-27T09:14:53.800Z,41.00
2018-01-27T09:17:22.138Z,42.90
2018-01-27T09:19:49.680Z,42.00
2018-01-27T09:22:18.042Z,40.63
2018-01-27T09:24:45.648Z,41.47
2018-01-27T09:27:13.312Z,38.20
2018-01-27T09:29:40.896Z,40.57
2018-01-27T09:32:08.514Z,41.33
2018-01-27T09:34:36.867Z,40.57
2018-01-27T09:37:04.412Z,38.30
2018-01-27T09:39:32.751Z,40.27
2018-01-27T09:42:00.297Z,40.23
2018-01-27T09:44:28.634Z,36.97
2018-01-27T09:46:56.186Z,39.80
2018-01-27T09:49:24.470Z,38.70
2018-01-27T09:51:52.026Z,40.50
2018-01-27T09:54:19.566Z,41.60
2018-01-27T09:56:47.941Z,38.10
2018-01-27T09:59:15.525Z,40.40
2018-01-27T10:01:43.095Z,36.47
2018-01-27T10:04:10.662Z,36.60
2018-01-27T10:06:38.177Z,35.40
2018-01-27T10:09:05.755Z,39.43
2018-01-27T10:11:33.341Z,35.30
2018-01-27T10:14:01.353Z,35.27
2018-01-27T10:16:29.649Z,32.90
2018-01-27T10:18:57.939Z,36.87
2018-01-27T10:21:25.521Z,37.70
2018-01-27T10:23:53.054Z,38.60
2018-01-27T10:26:20.578Z,36.67
2018-01-27T10:28:48.163Z,36.70
2018-01-27T10:31:15.715Z,36.90
2018-01-27T10:33:44.043Z,36.83
2018-01-27T10:36:11.628Z,38.87
2018-01-27T10:38:39.167Z,36.47
2018-01-27T10:41:07.482Z,34.60
2018-01-27T10:43:35.013Z,34.90
2018-01-27T10:46:02.646Z,35.10
2018-01-27T10:48:30.221Z,36.93
2018-01-27T10:50:57.824Z,34.80
2018-01-27T10:53:25.407Z,36.53
2018-01-27T10:55:52.960Z,38.20
2018-01-27T10:58:21.294Z,35.97
2018-01-27T11:00:48.833Z,36.43
2018-01-27T11:03:16.419Z,35.07
2018-01-27T11:05:44.706Z,37.63
2018-01-27T11:08:12.254Z,37.83
2018-01-27T11:10:39.862Z,39.37
2018-01-27T11:13:07.353Z,39.50
2018-01-27T11:15:34.905Z,36.87
2018-01-27T11:18:02.421Z,36.50
2018-01-27T11:20:29.956Z,40.00
2018-01-27T11:22:58.263Z,38.37
2018-01-27T11:25:25.858Z,39.80
2018-01-27T11:27:53.393Z,40.97
2018-01-27T11:30:20.943Z,37.87
2018-01-27T11:32:48.466Z,37.10
2018-01-27T11:35:16.002Z,39.60
2018-01-27T11:37:43.537Z,33.40
2018-01-27T11:40:11.092Z,36.60
2018-01-27T11:42:38.629Z,34.13
2018-01-27T11:45:06.981Z,36.40
2018-01-27T11:47:34.581Z,35.33
2018-01-27T11:50:02.148Z,35.37
2018-01-27T11:52:29.714Z,36.17
2018-01-27T11:54:57.299Z,34.97
2018-01-27T11:57:25.791Z,32.80
2018-01-27T11:59:53.317Z,31.60
2018-01-27T12:02:20.861Z,32.37
2018-01-27T12:04:48.508Z,33.57
2018-01-27T12:07:16.051Z,33.90
2018-01-27T12:09:43.589Z,34.53
2018-01-27T12:12:11.954Z,34.30
2018-01-27T12:14:39.612Z,37.70
2018-01-27T12:17:07.292Z,36.73
2018-01-27T12:19:34.815Z,36.93
2018-01-27T12:22:02.353Z,35.50
2018-01-27T12:24:30.682Z,35.17
2018-01-27T12:26:58.242Z,34.70
2018-01-27T12:29:26.532Z,30.90
2018-01-27T12:31:54.867Z,34.17
2018-01-27T12:34:22.383Z,29.00
2018-01-27T12:36:50.715Z,32.80
2018-01-27T12:39:18.321Z,31.80
2018-01-27T12:41:45.928Z,31.57
2018-01-27T12:44:13.472Z,31.20
2018-01-27T12:46:41.771Z,29.70
2018-01-27T12:49:10.082Z,29.70
2018-01-27T12:51:37.645Z,28.70
2018-01-27T12:54:05.179Z,27.97
2018-01-27T12:56:32.774Z,28.60
2018-01-27T12:59:00.294Z,28.23
2018-01-27T13:01:27.834Z,27.53
2018-01-27T13:03:55.394Z,28.27
2018-01-27T13:06:22.939Z,30.20
2018-01-27T13:08:50.521Z,28.47
2018-01-27T13:11:18.260Z,28.13
2018-01-27T13:13:45.800Z,29.67
2018-01-27T13:16:13.348Z,28.73
2018-01-27T13:18:40.897Z,28.97
2018-01-27T13:21:09.237Z,26.60
2018-01-27T13:23:36.775Z,25.53
2018-01-27T13:26:04.308Z,28.00
2018-01-27T13:28:31.849Z,25.43
2018-01-27T13:31:00.246Z,27.17
2018-01-27T13:33:28.546Z,27.37
2018-01-27T13:35:56.092Z,26.47
2018-01-27T13:38:23.606Z,27.70
2018-01-27T13:40:51.157Z,25.60
2018-01-27T13:43:18.743Z,28.43
2018-01-27T13:45:46.343Z,28.30
2018-01-27T13:48:13.990Z,27.10
2018-01-27T13:50:41.521Z,28.43
2018-01-27T13:53:09.051Z,28.00
2018-01-27T13:55:37.382Z,26.53
2018-01-27T13:58:05.770Z,27.83
2018-01-27T14:00:33.348Z,24.03
2018-01-27T14:03:01.677Z,24.80
2018-01-27T14:05:29.220Z,24.17
2018-01-27T14:07:57.557Z,24.10
2018-01-27T14:10:25.101Z,22.70
2018-01-27T14:12:53.440Z,24.27
2018-01-27T14:15:21.086Z,26.00
2018-01-27T14:17:48.626Z,25.67
2018-01-27T14:20:16.416Z,26.40
2018-01-27T14:22:44.055Z,23.70
2018-01-27T14:25:12.392Z,23.40
2018-01-27T14:27:39.928Z,23.27
2018-01-27T14:30:07.476Z,23.17
2018-01-27T14:32:35.076Z,23.67
2018-01-27T14:35:02.640Z,24.90
2018-01-27T14:37:30.188Z,24.87
2018-01-27T14:39:57.932Z,23.17
2018-01-27T14:42:25.558Z,24.17
2018-01-27T14:44:53.157Z,22.80
2018-01-27T14:47:21.771Z,24.50
2018-01-27T14:49:49.307Z,24.83
2018-01-27T14:52:16.945Z,24.33
2018-01-27T14:54:44.484Z,25.73
2018-01-27T14:57:12.822Z,26.07
2018-01-27T14:59:40.412Z,25.50
2018-01-27T15:02:08.719Z,25.37
2018-01-27T15:04:36.282Z,25.20
2018-01-27T15:07:03.839Z,23.70
2018-01-27T15:09:31.405Z,26.07
2018-01-27T15:11:58.984Z,25.43
2018-01-27T15:14:27.400Z,26.87
2018-01-27T15:16:54.996Z,24.13
2018-01-27T15:19:23.325Z,23.27
2018-01-27T15:21:50.841Z,23.60
2018-01-27T15:24:18.529Z,24.93
2018-01-27T15:26:46.902Z,24.50
2018-01-27T15:29:14.459Z,25.63
2018-01-27T15:31:42.773Z,25.90
2018-01-27T15:34:10.403Z,25.20
2018-01-27T15:36:37.968Z,27.30
2018-01-27T15:39:05.708Z,28.60
2018-01-27T15:41:34.053Z,27.23
2018-01-27T15:44:01.609Z,29.07
2018-01-27T15:46:29.928Z,26.70
2018-01-27T15:48:57.477Z,29.03
2018-01-27T15:51:25.032Z,26.00
2018-01-27T15:53:52.579Z,26.97
2018-01-27T15:56:20.935Z,27.00
2018-01-27T15:58:48.467Z,28.30
2018-01-27T16:01:16.089Z,23.97
2018-01-27T16:03:43.648Z,25.60
2018-01-27T16:06:11.212Z,27.77
2018-01-27T16:08:39.532Z,28.00
2018-01-27T16:11:07.120Z,28.30
2018-01-27T16:13:34.656Z,30.83
2018-01-27T16:16:02.206Z,30.30
2018-01-27T16:18:29.769Z,30.57
2018-01-27T16:20:57.352Z,29.50
2018-01-27T16:23:24.892Z,30.60
2018-01-27T16:25:52.495Z,32.33
2018-01-27T16:28:20.047Z,31.27
2018-01-27T16:30:47.581Z,34.83
2018-01-27T16:33:15.929Z,33.43
2018-01-27T16:35:43.462Z,33.63
2018-01-27T16:38:11.756Z,35.23
2018-01-27T16:40:39.329Z,33.43
2018-01-27T16:43:06.920Z,36.37
2018-01-27T16:45:34.467Z,35.60
2018-01-27T16:48:02.069Z,36.93
2018-01-27T16:50:29.656Z,37.40
2018-01-27T16:52:57.207Z,37.50
2018-01-27T16:55:24.802Z,38.20
2018-01-27T16:57:52.398Z,38.47
2018-01-27T17:00:20.071Z,38.17
2018-01-27T17:02:47.656Z,38.23
2018-01-27T17:05:15.201Z,40.00
2018-01-27T17:07:42.726Z,39.03
2018-01-27T17:10:10.321Z,39.30
2018-01-27T17:12:38.680Z,38.03
2018-01-27T17:15:07.015Z,38.17
2018-01-27T17:17:34.557Z,37.73
2018-01-27T17:20:02.148Z,42.40
2018-01-27T17:22:30.478Z,39.97
2018-01-27T17:24:58.072Z,39.97
2018-01-27T17:27:25.604Z,40.47
2018-01-27T17:29:53.153Z,41.10
2018-01-27T17:32:20.763Z,41.90
2018-01-27T17:34:48.348Z,42.37
2018-01-27T17:37:15.922Z,41.73
2018-01-27T17:39:43.474Z,41.00
2018-01-27T17:42:11.121Z,42.70
2018-01-27T17:44:38.673Z,41.03
2018-01-27T17:47:06.193Z,43.27
2018-01-27T17:49:33.719Z,43.47
2018-01-27T17:52:01.266Z,43.93
2018-01-27T17:54:29.562Z,42.47
2018-01-27T17:56:57.103Z,41.67
2018-01-27T17:59:24.660Z,42.03
2018-01-27T18:01:52.960Z,39.93
2018-01-27T18:04:20.807Z,42.60
2018-01-27T18:06:48.447Z,41.70
2018-01-27T18:09:16.752Z,43.23
2018-01-27T18:11:45.105Z,40.10
2018-01-27T18:14:12.735Z,39.70
2018-01-27T18:16:40.324Z,42.60
2018-01-27T18:19:07.903Z,42.07
2018-01-27T18:21:35.442Z,40.77
2018-01-27T18:24:02.963Z,43.97
2018-01-27T18:26:30.535Z,40.00
2018-01-27T18:28:58.088Z,43.70
2018-01-27T18:31:25.609Z,42.20
2018-01-27T18:33:53.212Z,44.33
2018-01-27T18:36:20.803Z,40.83
2018-01-27T18:38:49.141Z,42.43
2018-01-27T18:41:16.971Z,40.90
2018-01-27T18:43:44.525Z,39.73
2018-01-27T18:46:12.842Z,40.37
2018-01-27T18:48:40.411Z,41.93
2018-01-27T18:51:07.985Z,40.67
2018-01-27T18:53:36.402Z,40.97
2018-01-27T18:56:04.685Z,41.90
2018-01-27T18:58:32.293Z,39.37
2018-01-27T19:01:00.691Z,42.07
2018-01-27T19:03:28.989Z,41.70
2018-01-27T19:05:57.339Z,40.50
2018-01-27T19:08:24.877Z,40.40
2018-01-27T19:10:53.169Z,38.17
2018-01-27T19:13:21.608Z,39.27
2018-01-27T19:15:49.172Z,40.00
2018-01-27T19:18:16.782Z,37.27
2018-01-27T19:20:44.333Z,37.67
2018-01-27T19:23:12.648Z,38.73
2018-01-27T19:25:41.124Z,37.23
2018-01-27T19:28:08.793Z,39.40
2018-01-27T19:30:36.344Z,39.63
2018-01-27T19:33:03.889Z,39.03
2018-01-27T19:35:31.767Z,38.80
2018-01-27T19:37:59.312Z,39.67
2018-01-27T19:40:26.915Z,39.03
2018-01-27T19:42:54.504Z,42.47
2018-01-27T19:45:22.283Z,39.27
2018-01-27T19:47:49.840Z,38.87
2018-01-27T19:50:17.570Z,37.33
2018-01-27T19:52:45.213Z,38.20
2018-01-27T19:55:12.786Z,38.47
2018-01-27T19:57:40.506Z,39.80
2018-01-27T20:00:08.824Z,37.87
2018-01-27T20:02:36.368Z,38.07
2018-01-27T20:05:03.946Z,34.87
2018-01-27T20:07:31.535Z,47.90
2018-01-27T20:09:59.127Z,35.63
2018-01-27T20:12:26.801Z,36.47
2018-01-27T20:14:54.365Z,35.37
2018-01-27T20:17:21.956Z,36.70
2018-01-27T20:19:50.289Z,36.63
2018-01-27T20:22:17.868Z,36.27
2018-01-27T20:24:45.476Z,35.27
2018-01-27T20:27:13.778Z,36.93
2018-01-27T20:29:41.313Z,35.27
2018-01-27T20:32:08.873Z,36.17
2018-01-27T20:34:36.423Z,36.33
2018-01-27T20:37:04.739Z,33.67
2018-01-27T20:39:33.086Z,34.67
2018-01-27T20:42:00.645Z,36.57
2018-01-27T20:44:28.180Z,35.57
2018-01-27T20:46:55.737Z,33.20
2018-01-27T20:49:24.030Z,35.50
2018-01-27T20:51:55.499Z,33.30
2018-01-27T20:54:23.066Z,33.43
2018-01-27T20:56:51.389Z,36.57
2018-01-27T20:59:18.998Z,33.93
2018-01-27T21:01:46.568Z,35.10
2018-01-27T21:04:14.118Z,34.07
2018-01-27T21:06:42.436Z,38.70
2018-01-27T21:09:10.789Z,32.80
2018-01-27T21:11:38.361Z,35.70
2018-01-27T21:14:05.929Z,37.00
2018-01-27T21:16:33.498Z,35.93
2018-01-27T21:19:01.250Z,36.17
2018-01-27T21:21:28.819Z,34.80
2018-01-27T21:23:56.383Z,33.27
2018-01-27T21:26:23.968Z,37.70
2018-01-27T21:28:51.561Z,35.60
2018-01-27T21:31:19.270Z,33.93
2018-01-27T21:33:46.970Z,32.47
2018-01-27T21:36:14.537Z,34.27
2018-01-27T21:38:42.837Z,34.20
2018-01-27T21:41:11.211Z,35.13
2018-01-27T21:43:39.530Z,34.70
2018-01-27T21:46:07.855Z,33.90
2018-01-27T21:48:35.421Z,35.30
2018-01-27T21:51:02.959Z,32.27
2018-01-27T21:53:30.520Z,33.37
2018-01-27T21:55:58.078Z,35.20
2018-01-27T21:58:26.373Z,33.10
2018-01-27T22:00:53.904Z,33.87
2018-01-27T22:03:31.958Z,33.97
2018-01-27T22:05:59.473Z,32.50
2018-01-27T22:08:27.037Z,33.10
2018-01-27T22:10:55.556Z,34.50
2018-01-27T22:13:23.085Z,32.73
2018-01-27T22:15:50.611Z,34.43
2018-01-27T22:18:18.192Z,32.00
2018-01-27T22:20:45.729Z,33.80
2018-01-27T22:23:14.029Z,33.40
2018-01-27T22:25:42.480Z,33.80
2018-01-27T22:28:10.025Z,32.43
2018-01-27T22:30:37.565Z,32.23
2018-01-27T22:33:05.132Z,32.83
2018-01-27T22:35:32.679Z,33.97
2018-01-27T22:38:00.236Z,36.47
2018-01-27T22:40:27.816Z,34.20
2018-01-27T22:42:55.335Z,35.03
2018-01-27T22:45:23.642Z,32.67
2018-01-27T22:47:52.316Z,34.17
2018-01-27T22:50:19.845Z,35.67
2018-01-27T22:52:48.180Z,36.17
2018-01-27T22:55:15.763Z,35.23
2018-01-27T22:57:43.323Z,36.07
2018-01-27T23:00:11.657Z,36.47
2018-01-27T23:02:39.303Z,35.60
2018-01-27T23:05:07.731Z,36.90
2018-01-27T23:07:35.353Z,37.10
2018-01-27T23:10:02.938Z,35.90
2018-01-27T23:12:30.484Z,36.90
2018-01-27T23:14:58.791Z,37.30
2018-01-27T23:17:27.194Z,34.43
2018-01-27T23:19:55.494Z,36.77
2018-01-27T23:22:25.255Z,37.50
2018-01-27T23:24:52.872Z,35.87
2018-01-27T23:27:20.418Z,35.53
2018-01-27T23:29:48.067Z,36.67
2018-01-27T23:32:16.410Z,35.10
2018-01-27T23:34:43.967Z,35.73
2018-01-27T23:37:12.257Z,42.37
2018-01-27T23:39:39.843Z,34.93
2018-01-27T23:42:07.367Z,34.90
2018-01-27T23:44:34.920Z,34.13
2018-01-27T23:47:02.468Z,35.07
2018-01-27T23:49:30.009Z,34.60
2018-01-27T23:51:58.451Z,35.43
2018-01-27T23:54:26.055Z,32.90
2018-01-27T23:56:53.591Z,33.23
2018-01-27T23:59:21.982Z,33.87
